Time;durP1;ratioP1;P1;durP2;ratioP2;P2;SDS_P1;SDS_P2;PMS_P1;PMS_P2;Temp;Humidity;BMP_temperature;BMP_pressure;BME280_temperature;BME280_humidity;BME280_pressure;Samples;Min_cycle;Max_cycle;Signal;HPM_P1;HPM_P2
2022/12/20 00:02:13;;;;;;;32.00;22.60;;;-0.70;99.90;;;;;;5066593;28;20254;-75
2022/12/20 00:04:38;;;;;;;31.57;21.73;;;-0.70;99.90;;;;;;5063992;28;20191;-74
2022/12/20 00:07:04;;;;;;;32.20;21.30;;;-0.80;99.90;;;;;;5060862;28;20205;-74
2022/12/20 00:09:29;;;;;;;31.00;21.27;;;-0.90;99.90;;;;;;5067742;28;20199;-74
2022/12/20 00:11:55;;;;;;;32.47;21.43;;;-0.80;99.90;;;;;;5065649;28;20179;-74
2022/12/20 00:14:21;;;;;;;28.53;20.67;;;-0.70;99.90;;;;;;5069274;28;20221;-74
2022/12/20 00:16:46;;;;;;;31.07;21.83;;;-0.70;99.90;;;;;;5069191;28;20676;-74
2022/12/20 00:19:12;;;;;;;29.80;21.47;;;-0.80;99.90;;;;;;5068020;28;20213;-74
2022/12/20 00:21:38;;;;;;;32.43;22.77;;;-0.80;99.90;;;;;;5067593;28;20661;-75
2022/12/20 00:24:05;;;;;;;30.37;21.67;;;-0.80;99.90;;;;;;5059121;28;20259;-75
2022/12/20 00:26:31;;;;;;;31.23;21.20;;;-0.70;99.90;;;;;;5063629;28;20220;-74
2022/12/20 00:28:58;;;;;;;30.17;20.23;;;-0.70;99.90;;;;;;5064802;28;20191;-75
2022/12/20 00:31:25;;;;;;;33.00;21.60;;;-0.70;99.90;;;;;;5065879;28;20202;-75
2022/12/20 00:33:53;;;;;;;32.30;22.43;;;-0.70;99.90;;;;;;5058339;28;20183;-74
2022/12/20 00:36:20;;;;;;;32.73;22.20;;;-0.70;99.90;;;;;;5063555;28;20206;-74
2022/12/20 00:38:50;;;;;;;28.73;20.70;;;-0.70;99.90;;;;;;5067931;28;20179;-75
2022/12/20 00:41:19;;;;;;;32.03;23.27;;;-0.70;99.90;;;;;;5059284;28;20172;-75
2022/12/20 00:43:45;;;;;;;30.73;21.70;;;-0.80;99.90;;;;;;5061027;28;20186;-74
2022/12/20 00:46:12;;;;;;;29.80;20.47;;;-0.80;99.90;;;;;;5061943;28;20207;-75
2022/12/20 00:48:38;;;;;;;33.60;21.57;;;-0.90;99.90;;;;;;5066850;28;20184;-75
2022/12/20 00:51:06;;;;;;;30.67;21.83;;;-0.80;99.90;;;;;;5065781;28;20211;-75
2022/12/20 00:53:32;;;;;;;32.20;22.00;;;-0.90;99.90;;;;;;5067168;28;20183;-75
2022/12/20 00:55:58;;;;;;;32.47;21.10;;;-0.80;99.90;;;;;;5064037;28;20722;-75
2022/12/20 00:58:25;;;;;;;29.17;20.23;;;-0.80;99.90;;;;;;5067937;28;20182;-75
2022/12/20 01:00:51;;;;;;;29.73;20.50;;;-0.80;99.90;;;;;;5063892;28;20340;-75
2022/12/20 01:03:17;;;;;;;31.13;21.03;;;-0.70;99.90;;;;;;5062813;28;20281;-75
2022/12/20 01:06:09;;;;;;;32.10;21.57;;;-0.60;99.90;;;;;;5061455;28;20697;-74
2022/12/20 01:08:35;;;;;;;28.77;20.97;;;-0.60;99.90;;;;;;5057657;28;20768;-74
2022/12/20 01:11:15;;;;;;;28.73;20.37;;;-0.60;99.90;;;;;;5064471;28;20319;-74
2022/12/20 01:13:44;;;;;;;29.73;20.80;;;-0.50;99.90;;;;;;5066304;28;20198;-75
2022/12/20 01:16:14;;;;;;;29.47;21.33;;;-0.60;99.90;;;;;;5067468;28;20222;-74
2022/12/20 01:18:39;;;;;;;28.93;21.53;;;-0.60;99.90;;;;;;5061914;28;20584;-74
2022/12/20 01:21:11;;;;;;;30.13;20.70;;;-0.70;99.90;;;;;;5057779;28;20290;-75
2022/12/20 01:23:37;;;;;;;29.13;21.07;;;-0.70;99.90;;;;;;5060860;28;20183;-75
2022/12/20 01:26:04;;;;;;;37.33;21.83;;;-0.70;99.90;;;;;;5061165;28;20190;-75
2022/12/20 01:28:31;;;;;;;34.07;22.27;;;-0.70;99.90;;;;;;5060082;28;20271;-75
2022/12/20 01:30:57;;;;;;;30.80;20.93;;;-0.70;99.90;;;;;;5061738;28;20502;-75
2022/12/20 01:33:22;;;;;;;30.70;21.03;;;-0.60;99.90;;;;;;5061626;28;20621;-75
2022/12/20 01:35:56;;;;;;;32.47;22.37;;;-0.70;99.90;;;;;;5062323;28;20200;-76
2022/12/20 01:38:22;;;;;;;30.00;21.00;;;-0.70;99.90;;;;;;5064701;28;20179;-75
2022/12/20 01:40:48;;;;;;;29.23;20.80;;;-0.70;99.90;;;;;;5066733;28;20207;-75
2022/12/20 01:43:16;;;;;;;32.60;21.80;;;-0.70;99.90;;;;;;5065266;28;20179;-75
2022/12/20 01:45:42;;;;;;;36.07;21.07;;;-0.60;99.90;;;;;;5063950;28;20215;-74
2022/12/20 01:48:08;;;;;;;29.80;20.40;;;-0.50;99.90;;;;;;5070803;28;20237;-75
2022/12/20 01:50:33;;;;;;;31.70;21.00;;;-0.60;99.90;;;;;;5062707;28;20210;-75
2022/12/20 01:53:01;;;;;;;34.57;22.70;;;-0.50;99.90;;;;;;5070332;28;20649;-76
2022/12/20 01:55:27;;;;;;;28.43;20.53;;;-0.50;99.90;;;;;;5067682;28;20182;-75
2022/12/20 01:58:05;;;;;;;29.70;20.57;;;-0.50;99.90;;;;;;5068609;28;20172;-74
2022/12/20 02:00:30;;;;;;;31.90;21.80;;;-0.50;99.90;;;;;;5065600;28;20542;-74
2022/12/20 02:03:00;;;;;;;33.07;21.33;;;-0.60;99.90;;;;;;5064980;28;20221;-74
2022/12/20 02:05:26;;;;;;;27.60;20.97;;;-0.80;99.90;;;;;;5065164;28;20179;-74
2022/12/20 02:07:54;;;;;;;27.17;20.43;;;-0.70;99.90;;;;;;5066624;28;20182;-74
2022/12/20 02:10:23;;;;;;;30.53;20.90;;;-0.70;99.90;;;;;;5067181;28;20195;-75
2022/12/20 02:12:54;;;;;;;33.90;22.60;;;-0.80;99.90;;;;;;5072358;28;20175;-74
2022/12/20 02:15:50;;;;;;;30.90;20.33;;;-0.80;99.90;;;;;;5068237;28;20186;-74
2022/12/20 02:18:27;;;;;;;29.60;20.50;;;-0.80;99.90;;;;;;5067883;28;20175;-75
2022/12/20 02:21:12;;;;;;;32.07;22.40;;;-0.70;99.90;;;;;;5064596;28;20256;-75
2022/12/20 02:23:55;;;;;;;31.77;21.40;;;-0.70;99.90;;;;;;5065331;28;20188;-74
2022/12/20 02:26:48;;;;;;;28.77;20.27;;;-0.70;99.90;;;;;;5068842;28;20174;-75
2022/12/20 02:29:35;;;;;;;33.77;21.93;;;-0.70;99.90;;;;;;5070482;28;20580;-75
2022/12/20 02:32:16;;;;;;;32.37;22.50;;;-0.80;99.90;;;;;;5065847;28;20193;-74
2022/12/20 02:34:42;;;;;;;30.33;21.33;;;-0.90;99.90;;;;;;5059108;28;20669;-75
2022/12/20 02:37:09;;;;;;;34.30;20.30;;;-0.90;99.90;;;;;;5067946;28;20243;-74
2022/12/20 02:39:38;;;;;;;32.73;22.23;;;-0.90;99.90;;;;;;5065310;28;20188;-76
2022/12/20 02:42:08;;;;;;;33.37;20.40;;;-0.90;99.90;;;;;;5069050;28;20253;-76
2022/12/20 02:47:29;;;;;;;29.27;20.03;;;-0.90;99.90;;;;;;5069157;28;20266;-75
2022/12/20 02:49:55;;;;;;;31.93;21.17;;;-0.90;99.90;;;;;;5068859;28;20294;-75
2022/12/20 02:52:25;;;;;;;31.83;21.73;;;-0.90;99.90;;;;;;5065783;28;20179;-76
2022/12/20 02:54:55;;;;;;;32.13;22.07;;;-0.90;99.90;;;;;;5068317;28;20278;-75
2022/12/20 02:57:38;;;;;;;30.43;19.20;;;-0.80;99.90;;;;;;5066285;28;20669;-76
2022/12/20 03:00:12;;;;;;;32.07;22.93;;;-0.90;99.90;;;;;;5067679;28;20204;-75
2022/12/20 03:05:25;;;;;;;31.13;20.73;;;-0.90;99.90;;;;;;5064326;28;20185;-75
2022/12/20 03:07:50;;;;;;;33.77;21.77;;;-0.90;99.90;;;;;;5060053;28;20188;-75
2022/12/20 03:10:17;;;;;;;32.50;21.40;;;-1.00;99.90;;;;;;5070631;28;20286;-75
2022/12/20 03:12:42;;;;;;;29.43;19.17;;;-1.00;99.90;;;;;;5068485;28;20219;-75
2022/12/20 03:15:08;;;;;;;32.13;22.37;;;-1.00;99.90;;;;;;5067711;28;20280;-75
2022/12/20 03:17:34;;;;;;;31.00;20.60;;;-1.10;99.90;;;;;;5062605;28;20211;-75
2022/12/20 03:20:00;;;;;;;32.13;21.87;;;-1.10;99.90;;;;;;5064123;28;20282;-75
2022/12/20 03:22:26;;;;;;;33.63;22.13;;;-1.10;99.90;;;;;;5068232;28;20184;-75
2022/12/20 03:24:51;;;;;;;33.50;22.27;;;-1.10;99.90;;;;;;5076773;28;20186;-75
2022/12/20 03:27:17;;;;;;;32.10;22.30;;;-1.00;99.90;;;;;;5067699;28;20178;-75
2022/12/20 03:29:44;;;;;;;33.93;22.13;;;-1.10;99.90;;;;;;5064972;28;20697;-75
2022/12/20 03:32:10;;;;;;;31.97;21.50;;;-1.00;99.90;;;;;;5065794;28;20179;-75
2022/12/20 03:34:36;;;;;;;31.07;22.13;;;-1.10;99.90;;;;;;5068399;28;20719;-75
2022/12/20 03:37:02;;;;;;;29.93;20.43;;;-1.10;99.90;;;;;;5065285;28;20278;-75
2022/12/20 03:39:28;;;;;;;31.67;21.20;;;-1.00;99.90;;;;;;5071253;28;20238;-75
2022/12/20 03:41:53;;;;;;;35.13;23.80;;;-1.00;99.90;;;;;;5065297;28;20182;-75
2022/12/20 03:44:19;;;;;;;33.70;22.93;;;-1.00;99.90;;;;;;5069663;28;20179;-74
2022/12/20 03:46:44;;;;;;;30.37;21.30;;;-1.10;99.90;;;;;;5070283;28;20261;-75
2022/12/20 03:49:10;;;;;;;36.87;23.97;;;-1.10;99.90;;;;;;5065788;28;20685;-75
2022/12/20 03:51:36;;;;;;;31.47;21.83;;;-1.00;99.90;;;;;;5065375;28;20564;-75
2022/12/20 03:54:01;;;;;;;36.33;21.90;;;-1.00;99.90;;;;;;5067870;28;20194;-75
2022/12/20 03:56:27;;;;;;;34.63;22.47;;;-1.00;99.90;;;;;;5061968;28;20215;-75
2022/12/20 03:58:52;;;;;;;29.97;20.80;;;-0.90;99.90;;;;;;5070261;28;20623;-76
2022/12/20 04:01:26;;;;;;;31.93;21.77;;;-0.90;99.90;;;;;;5069723;28;20186;-74
2022/12/20 04:03:52;;;;;;;32.17;20.70;;;-0.90;99.90;;;;;;5067935;28;20195;-75
2022/12/20 04:06:18;;;;;;;30.10;21.20;;;-0.80;99.90;;;;;;5067531;28;20563;-75
2022/12/20 04:08:45;;;;;;;30.33;21.20;;;-0.80;99.90;;;;;;5064697;28;20634;-75
2022/12/20 04:11:16;;;;;;;31.23;22.00;;;-0.80;99.90;;;;;;5070929;28;20674;-74
2022/12/20 04:13:47;;;;;;;36.77;23.30;;;-0.80;99.90;;;;;;5071364;28;20220;-75
2022/12/20 04:16:14;;;;;;;31.57;20.40;;;-0.80;99.90;;;;;;5065831;28;20707;-75
2022/12/20 04:18:40;;;;;;;34.13;22.20;;;-0.80;99.90;;;;;;5058590;28;20179;-74
2022/12/20 04:21:08;;;;;;;34.20;22.23;;;-0.80;99.90;;;;;;5070149;28;20577;-74
2022/12/20 04:23:35;;;;;;;31.67;21.57;;;-0.80;99.90;;;;;;5063369;28;20194;-73
2022/12/20 04:26:03;;;;;;;33.20;22.57;;;-0.80;99.90;;;;;;5065651;28;20211;-75
2022/12/20 04:28:29;;;;;;;33.57;22.70;;;-0.80;99.90;;;;;;5065626;28;20183;-75
2022/12/20 04:30:55;;;;;;;31.47;20.40;;;-0.80;99.90;;;;;;5065938;28;20207;-75
2022/12/20 04:33:21;;;;;;;33.70;21.33;;;-0.80;99.90;;;;;;5066362;28;20270;-75
2022/12/20 04:35:47;;;;;;;31.40;21.50;;;-0.90;99.90;;;;;;5063586;28;20665;-74
2022/12/20 04:38:13;;;;;;;31.80;22.50;;;-0.90;99.90;;;;;;5062031;28;20186;-75
2022/12/20 04:40:38;;;;;;;31.10;20.17;;;-0.80;99.90;;;;;;5061277;28;20636;-75
2022/12/20 04:43:04;;;;;;;31.43;20.07;;;-0.80;99.90;;;;;;5064943;28;20187;-76
2022/12/20 04:45:29;;;;;;;32.67;21.50;;;-0.70;99.90;;;;;;5064494;28;20175;-75
2022/12/20 04:47:55;;;;;;;31.23;21.07;;;-0.90;99.90;;;;;;5065507;28;20176;-75
2022/12/20 04:50:20;;;;;;;30.97;20.47;;;-0.90;99.90;;;;;;5068145;28;20641;-75
2022/12/20 04:55:35;;;;;;;35.00;22.87;;;-0.80;99.90;;;;;;5063574;28;20217;-75
2022/12/20 04:58:00;;;;;;;39.23;22.37;;;-0.80;99.90;;;;;;5065409;28;20179;-76
2022/12/20 05:00:26;;;;;;;36.03;22.90;;;-0.80;99.90;;;;;;5061010;28;20199;-75
2022/12/20 05:02:52;;;;;;;30.80;21.30;;;-0.90;99.90;;;;;;5067375;28;20199;-75
2022/12/20 05:05:17;;;;;;;33.43;21.33;;;-0.90;99.90;;;;;;5066100;28;20210;-75
2022/12/20 05:07:43;;;;;;;33.10;21.40;;;-1.00;99.90;;;;;;5064663;28;20198;-75
2022/12/20 05:10:09;;;;;;;31.37;22.00;;;-0.90;99.90;;;;;;5072497;28;20290;-74
2022/12/20 05:12:34;;;;;;;32.53;21.50;;;-0.90;99.90;;;;;;5071269;28;20241;-74
2022/12/20 05:15:00;;;;;;;34.87;20.93;;;-1.00;99.90;;;;;;5063634;28;20180;-74
2022/12/20 05:17:25;;;;;;;35.90;22.83;;;-0.90;99.90;;;;;;5060742;28;20558;-76
2022/12/20 05:19:51;;;;;;;28.63;20.63;;;-0.80;99.90;;;;;;5067361;28;20198;-75
2022/12/20 05:27:44;;;;;;;30.50;20.10;;;-0.70;99.90;;;;;;5059037;28;20189;-74
2022/12/20 05:30:11;;;;;;;33.50;20.63;;;-0.70;99.90;;;;;;5063635;28;20198;-74
2022/12/20 05:32:36;;;;;;;31.60;19.30;;;-0.70;99.90;;;;;;5057877;28;20194;-74
2022/12/20 05:35:02;;;;;;;32.17;19.40;;;-0.60;99.90;;;;;;5059682;28;20183;-75
2022/12/20 05:37:27;;;;;;;32.73;22.07;;;-0.50;99.90;;;;;;5055944;28;20665;-75
2022/12/20 05:39:53;;;;;;;34.00;20.23;;;-0.40;99.90;;;;;;5063579;28;20188;-75
2022/12/20 05:42:19;;;;;;;33.10;21.60;;;-0.50;99.90;;;;;;5063042;28;20221;-74
2022/12/20 05:44:45;;;;;;;34.67;22.23;;;-0.60;99.90;;;;;;5065458;28;20199;-76
2022/12/20 05:47:10;;;;;;;30.50;19.60;;;-0.60;99.90;;;;;;5065735;28;20668;-74
2022/12/20 05:49:36;;;;;;;33.37;21.60;;;-0.60;99.90;;;;;;5065960;28;20211;-75
2022/12/20 05:52:02;;;;;;;32.10;20.83;;;-0.60;99.90;;;;;;5064383;28;20188;-74
2022/12/20 05:54:27;;;;;;;31.27;20.67;;;-0.60;99.90;;;;;;5061746;28;20187;-74
2022/12/20 05:56:53;;;;;;;33.37;21.17;;;-0.60;99.90;;;;;;5063564;28;20207;-74
2022/12/20 05:59:18;;;;;;;36.90;22.07;;;-0.50;99.90;;;;;;5064215;28;20240;-74
2022/12/20 06:01:44;;;;;;;33.53;21.20;;;-0.50;99.90;;;;;;5061753;28;20276;-75
2022/12/20 06:04:10;;;;;;;33.10;20.53;;;-0.60;99.90;;;;;;5064877;28;20638;-73
2022/12/20 06:06:35;;;;;;;32.27;19.70;;;-0.60;99.90;;;;;;5064994;28;20654;-73
2022/12/20 06:09:01;;;;;;;31.07;21.50;;;-0.50;99.90;;;;;;5063288;28;20601;-76
2022/12/20 06:11:26;;;;;;;32.13;20.57;;;-0.60;99.90;;;;;;5059921;28;20175;-75
2022/12/20 06:13:52;;;;;;;31.40;20.37;;;-0.50;99.90;;;;;;5065370;28;20251;-75
2022/12/20 06:16:19;;;;;;;33.97;20.13;;;-0.50;99.90;;;;;;5067159;28;20565;-75
2022/12/20 06:18:45;;;;;;;29.97;19.87;;;-0.40;99.90;;;;;;5065668;28;20260;-74
2022/12/20 06:21:12;;;;;;;33.73;22.87;;;-0.30;99.90;;;;;;5064532;28;20736;-73
2022/12/20 06:23:37;;;;;;;32.80;22.60;;;-0.20;99.90;;;;;;5058723;28;20286;-74
2022/12/20 06:26:03;;;;;;;35.20;21.30;;;-0.20;99.90;;;;;;5058748;28;20266;-74
2022/12/20 06:28:29;;;;;;;35.47;21.63;;;-0.10;99.90;;;;;;5054284;28;20191;-74
2022/12/20 06:30:56;;;;;;;31.90;21.40;;;-0.10;99.90;;;;;;5058139;28;20204;-73
2022/12/20 06:33:23;;;;;;;34.00;20.53;;;-0.10;99.90;;;;;;5067194;28;20665;-74
2022/12/20 06:35:49;;;;;;;31.40;20.80;;;-0.20;99.90;;;;;;5061531;28;20574;-74
2022/12/20 06:38:15;;;;;;;34.77;21.60;;;-0.20;99.90;;;;;;5070280;28;20270;-75
2022/12/20 06:40:41;;;;;;;33.80;20.63;;;-0.20;99.90;;;;;;5069244;28;20277;-71
2022/12/20 06:43:07;;;;;;;33.33;22.03;;;-0.30;99.90;;;;;;5065371;28;21462;-71
2022/12/20 06:45:32;;;;;;;32.67;20.67;;;-0.30;99.90;;;;;;5068455;28;20229;-72
2022/12/20 06:47:58;;;;;;;31.83;21.03;;;-0.30;99.90;;;;;;5065472;28;20172;-74
2022/12/20 06:50:24;;;;;;;33.27;21.03;;;-0.30;99.90;;;;;;5068719;28;20226;-74
2022/12/20 06:52:49;;;;;;;33.43;20.80;;;-0.10;99.90;;;;;;5071303;28;20190;-72
2022/12/20 06:55:15;;;;;;;33.50;21.67;;;-0.10;99.90;;;;;;5068324;28;20306;-74
2022/12/20 06:57:41;;;;;;;31.93;21.30;;;-0.10;99.90;;;;;;5088143;28;20277;-74
2022/12/20 07:00:09;;;;;;;35.23;21.73;;;-0.10;99.90;;;;;;5067318;28;20199;-74
2022/12/20 07:02:35;;;;;;;32.93;21.67;;;-0.20;99.90;;;;;;5064456;28;20187;-74
2022/12/20 07:05:00;;;;;;;31.63;21.33;;;-0.30;99.90;;;;;;5072328;28;20236;-72
2022/12/20 07:07:26;;;;;;;31.93;21.37;;;-0.30;99.90;;;;;;5069720;28;20182;-73
2022/12/20 07:09:52;;;;;;;32.40;22.07;;;-0.20;99.90;;;;;;5076176;28;20253;-71
2022/12/20 07:12:17;;;;;;;35.10;21.47;;;-0.30;99.90;;;;;;5066136;28;20180;-71
2022/12/20 07:14:43;;;;;;;30.93;20.33;;;-0.20;99.90;;;;;;5066207;28;20175;-73
2022/12/20 07:17:09;;;;;;;29.47;19.80;;;-0.10;99.90;;;;;;5064899;28;20226;-71
2022/12/20 07:19:35;;;;;;;38.37;22.23;;;-0.10;99.90;;;;;;5059293;28;20689;-74
2022/12/20 07:22:02;;;;;;;33.23;21.27;;;0.00;99.90;;;;;;5066213;28;20175;-75
2022/12/20 07:24:27;;;;;;;33.53;20.67;;;-0.10;99.90;;;;;;5064469;28;20219;-73
2022/12/20 07:26:53;;;;;;;34.87;20.57;;;0.00;99.90;;;;;;5067744;28;20258;-74
2022/12/20 07:29:18;;;;;;;32.83;21.03;;;0.00;99.90;;;;;;5061938;28;20681;-74
2022/12/20 07:31:44;;;;;;;32.50;20.73;;;0.00;99.90;;;;;;5059831;28;20183;-74
2022/12/20 07:34:10;;;;;;;30.33;19.10;;;0.00;99.90;;;;;;5074045;28;20653;-73
2022/12/20 07:36:35;;;;;;;34.20;21.93;;;0.10;99.90;;;;;;5067982;28;20203;-73
2022/12/20 07:39:01;;;;;;;31.63;19.77;;;0.10;99.90;;;;;;5070219;28;20179;-74
2022/12/20 07:41:27;;;;;;;32.07;20.63;;;0.20;99.90;;;;;;5070722;28;20196;-72
2022/12/20 07:43:52;;;;;;;35.27;22.33;;;0.20;99.90;;;;;;5061918;28;20180;-71
2022/12/20 07:46:18;;;;;;;34.07;20.80;;;0.10;99.90;;;;;;5069234;28;20175;-72
2022/12/20 07:48:44;;;;;;;34.70;21.83;;;0.20;99.90;;;;;;5070015;28;20552;-72
2022/12/20 07:51:17;;;;;;;35.57;20.10;;;0.30;99.90;;;;;;5072635;28;20273;-73
2022/12/20 07:53:49;;;;;;;32.07;20.00;;;0.40;99.90;;;;;;5074713;28;20172;-75
2022/12/20 07:56:17;;;;;;;35.27;21.60;;;0.50;99.90;;;;;;5064478;28;20202;-72
2022/12/20 07:58:43;;;;;;;31.23;21.33;;;0.50;99.90;;;;;;5072795;28;20172;-72
2022/12/20 08:01:10;;;;;;;35.07;22.73;;;0.60;99.90;;;;;;5068546;28;20282;-70
2022/12/20 08:03:48;;;;;;;33.60;21.57;;;0.60;99.90;;;;;;5069043;28;20285;-72
2022/12/20 08:06:17;;;;;;;31.80;21.10;;;0.60;99.90;;;;;;5066626;28;20199;-72
2022/12/20 08:08:48;;;;;;;30.80;20.83;;;0.60;99.90;;;;;;5067630;28;20188;-73
2022/12/20 08:11:15;;;;;;;32.80;21.00;;;0.60;99.90;;;;;;5060069;28;20226;-72
2022/12/20 08:13:40;;;;;;;33.23;22.03;;;0.70;99.90;;;;;;5071896;28;20184;-72
2022/12/20 08:16:06;;;;;;;31.80;21.27;;;0.80;99.90;;;;;;5062002;28;20213;-73
2022/12/20 08:18:32;;;;;;;31.40;21.03;;;0.70;99.90;;;;;;5066032;28;20203;-72
2022/12/20 08:20:57;;;;;;;31.93;19.43;;;0.70;99.90;;;;;;5061999;28;20206;-70
2022/12/20 08:23:23;;;;;;;29.77;20.20;;;0.80;99.90;;;;;;5067200;28;20626;-73
2022/12/20 08:25:49;;;;;;;32.87;20.80;;;0.90;99.90;;;;;;5073427;28;20191;-72
2022/12/20 08:28:15;;;;;;;30.33;20.43;;;1.10;99.90;;;;;;5071075;28;20270;-72
2022/12/20 08:30:40;;;;;;;35.03;22.50;;;1.10;99.90;;;;;;5066717;28;20716;-72
2022/12/20 08:33:06;;;;;;;33.40;21.53;;;1.30;99.90;;;;;;5069567;28;20180;-73
2022/12/20 08:35:32;;;;;;;30.07;20.83;;;1.30;99.90;;;;;;5061036;28;20183;-73
2022/12/20 08:37:58;;;;;;;29.93;20.30;;;1.40;99.90;;;;;;5064667;28;20226;-73
2022/12/20 08:40:23;;;;;;;30.90;21.57;;;1.50;99.90;;;;;;5066684;28;20196;-72
2022/12/20 08:42:49;;;;;;;34.77;22.00;;;1.40;99.90;;;;;;5067129;28;20254;-71
2022/12/20 08:45:14;;;;;;;31.80;20.13;;;1.40;99.90;;;;;;5071748;28;20174;-73
2022/12/20 08:47:40;;;;;;;35.23;22.23;;;1.50;99.90;;;;;;5072868;28;20183;-72
2022/12/20 08:50:06;;;;;;;30.80;20.13;;;1.60;99.90;;;;;;5068571;28;20203;-73
2022/12/20 08:52:32;;;;;;;34.20;21.67;;;1.70;99.90;;;;;;5063001;28;20175;-73
2022/12/20 08:54:57;;;;;;;28.87;19.23;;;1.90;99.90;;;;;;5064016;28;20681;-72
2022/12/20 08:57:23;;;;;;;30.05;19.48;;;2.10;99.90;;;;;;5067640;28;20215;-71
2022/12/20 08:59:48;;;;;;;32.05;22.40;;;2.20;99.90;;;;;;5068123;28;20290;-73
2022/12/20 09:02:14;;;;;;;30.38;18.73;;;2.20;99.90;;;;;;5069662;28;20190;-73
2022/12/20 09:04:40;;;;;;;33.50;21.40;;;2.30;99.90;;;;;;5069441;28;20183;-72
2022/12/20 09:07:05;;;;;;;30.88;21.05;;;2.30;99.90;;;;;;5073178;28;20270;-73
2022/12/20 09:09:31;;;;;;;30.30;20.50;;;2.30;99.90;;;;;;5068108;28;20201;-73
2022/12/20 09:11:56;;;;;;;31.88;21.27;;;2.30;99.90;;;;;;5067056;28;20236;-73
2022/12/20 09:14:22;;;;;;;28.25;20.17;;;2.40;99.90;;;;;;5068895;28;20181;-73
2022/12/20 09:16:48;;;;;;;29.23;20.63;;;2.40;99.90;;;;;;5071624;28;20239;-73
2022/12/20 09:19:14;;;;;;;30.60;20.65;;;2.40;99.90;;;;;;5066931;28;20616;-72
2022/12/20 09:21:40;;;;;;;32.28;19.98;;;2.50;99.90;;;;;;5067117;28;20202;-73
2022/12/20 09:24:06;;;;;;;31.50;19.67;;;2.50;99.90;;;;;;5068728;28;20674;-73
2022/12/20 09:26:34;;;;;;;31.45;19.30;;;2.60;99.90;;;;;;5066559;28;20723;-76
2022/12/20 09:29:00;;;;;;;32.88;19.85;;;2.60;99.90;;;;;;5064907;28;20187;-73
2022/12/20 09:31:27;;;;;;;31.38;20.05;;;2.50;99.90;;;;;;5060747;28;20194;-71
2022/12/20 09:33:54;;;;;;;28.45;19.95;;;2.50;99.90;;;;;;5063207;28;20190;-72
2022/12/20 09:36:21;;;;;;;29.25;19.50;;;2.30;99.90;;;;;;5058649;28;20234;-73
2022/12/20 09:38:47;;;;;;;27.67;18.85;;;2.40;99.90;;;;;;5064461;28;20176;-73
2022/12/20 09:41:41;;;;;;;33.55;20.15;;;2.40;99.90;;;;;;5066287;28;20199;-72
2022/12/20 09:44:37;;;;;;;31.85;20.13;;;2.40;99.90;;;;;;5057224;28;20689;-76
2022/12/20 09:47:30;;;;;;;29.70;18.95;;;2.40;99.90;;;;;;5059275;28;20203;-74
2022/12/20 09:49:56;;;;;;;31.25;20.30;;;2.60;99.90;;;;;;5059632;28;20215;-76
2022/12/20 09:52:34;;;;;;;29.98;19.30;;;2.60;99.90;;;;;;5056222;28;20180;-76
2022/12/20 09:55:17;;;;;;;31.38;21.42;;;2.80;99.90;;;;;;5059125;28;20191;-76
2022/12/20 09:57:52;;;;;;;31.80;21.20;;;3.00;99.90;;;;;;5064501;28;20227;-74
2022/12/20 10:00:19;;;;;;;28.05;18.52;;;3.10;99.90;;;;;;5060824;28;20678;-74
2022/12/20 10:02:46;;;;;;;32.75;19.88;;;3.30;99.90;;;;;;5065459;28;20283;-74
2022/12/20 10:05:19;;;;;;;32.45;20.73;;;3.50;99.90;;;;;;5066142;28;20176;-74
2022/12/20 10:08:25;;;;;;;28.60;18.60;;;3.60;99.90;;;;;;5065649;28;20653;-74
2022/12/20 10:11:01;;;;;;;33.20;21.65;;;3.80;99.90;;;;;;5025799;28;20781;-73
2022/12/20 10:13:43;;;;;;;25.30;17.55;;;4.00;99.90;;;;;;5024938;28;20251;-74
2022/12/20 10:16:27;;;;;;;29.00;18.90;;;4.00;99.90;;;;;;5050086;28;20261;-74
2022/12/20 10:19:19;;;;;;;30.77;20.75;;;4.10;99.90;;;;;;5071692;28;20199;-73
2022/12/20 10:22:07;;;;;;;28.83;19.27;;;4.10;99.90;;;;;;5062732;28;20175;-74
2022/12/20 10:24:34;;;;;;;32.53;20.23;;;4.10;99.90;;;;;;5067234;28;20178;-74
2022/12/20 10:27:18;;;;;;;30.55;19.35;;;4.10;99.90;;;;;;5071352;28;20306;-73
2022/12/20 10:29:46;;;;;;;29.80;20.80;;;4.20;99.90;;;;;;5068922;28;20328;-74
2022/12/20 10:32:18;;;;;;;33.22;22.00;;;4.20;99.90;;;;;;5066826;28;20179;-74
2022/12/20 10:34:56;;;;;;;30.67;19.90;;;4.30;99.90;;;;;;5070594;28;20711;-74
2022/12/20 10:37:22;;;;;;;29.10;20.65;;;4.40;99.90;;;;;;5070831;28;20201;-74
2022/12/20 10:39:49;;;;;;;30.80;20.60;;;4.70;99.90;;;;;;5067351;28;20880;-74
2022/12/20 10:42:21;;;;;;;31.42;20.23;;;4.80;99.90;;;;;;5064012;28;20584;-75
2022/12/20 10:44:47;;;;;;;27.20;19.15;;;5.10;99.90;;;;;;5071174;28;20184;-73
2022/12/20 10:47:40;;;;;;;29.38;19.50;;;5.30;99.90;;;;;;5064642;28;20562;-75
2022/12/20 10:50:20;;;;;;;29.50;19.50;;;5.60;99.90;;;;;;5067229;28;20207;-74
2022/12/20 10:53:17;;;;;;;28.92;18.23;;;5.80;99.90;;;;;;5061598;28;20187;-75
2022/12/20 10:55:42;;;;;;;28.40;18.48;;;5.60;99.90;;;;;;5058727;28;20191;-75
2022/12/20 10:58:37;;;;;;;28.23;19.42;;;5.40;99.90;;;;;;5071242;28;20180;-75
2022/12/20 11:01:16;;;;;;;28.73;19.33;;;5.20;99.90;;;;;;5058470;28;20214;-74
2022/12/20 11:03:55;;;;;;;29.23;19.42;;;5.00;99.90;;;;;;5056941;28;20233;-74
2022/12/20 11:06:26;;;;;;;25.70;18.50;;;4.80;99.90;;;;;;5059765;28;20701;-75
2022/12/20 11:08:52;;;;;;;28.02;19.45;;;4.80;99.90;;;;;;5057781;28;20225;-74
2022/12/20 11:11:22;;;;;;;31.63;21.00;;;4.80;99.90;;;;;;5058376;28;20196;-74
2022/12/20 11:13:49;;;;;;;27.13;19.35;;;4.90;99.90;;;;;;5059216;28;20188;-74
2022/12/20 11:16:28;;;;;;;26.17;17.58;;;4.90;99.90;;;;;;5063208;28;20286;-74
2022/12/20 11:19:16;;;;;;;27.20;19.08;;;4.90;99.90;;;;;;5058654;28;20171;-75
2022/12/20 11:21:58;;;;;;;29.42;19.63;;;5.00;99.90;;;;;;5060010;28;20184;-74
2022/12/20 11:24:33;;;;;;;31.08;19.80;;;5.10;99.90;;;;;;5057543;28;20176;-74
2022/12/20 11:27:18;;;;;;;26.08;18.38;;;5.10;99.90;;;;;;5055825;28;20605;-75
2022/12/20 11:29:52;;;;;;;28.80;19.33;;;5.00;99.90;;;;;;5057695;28;20242;-75
2022/12/20 11:32:43;;;;;;;26.65;18.67;;;5.00;99.90;;;;;;5059012;28;20673;-73
2022/12/20 11:35:16;;;;;;;28.75;18.95;;;5.30;99.90;;;;;;5062667;28;20179;-74
2022/12/20 11:38:19;;;;;;;25.00;18.30;;;5.70;99.90;;;;;;5063298;28;20206;-75
2022/12/20 11:41:01;;;;;;;29.95;20.75;;;5.70;99.90;;;;;;5064508;28;20214;-77
2022/12/20 11:43:52;;;;;;;30.40;19.55;;;5.60;99.90;;;;;;5062615;28;20266;-75
2022/12/20 11:46:29;;;;;;;28.23;18.77;;;5.50;99.90;;;;;;5060512;28;20217;-75
2022/12/20 11:48:55;;;;;;;30.45;19.02;;;5.50;99.90;;;;;;5063657;28;20179;-75
2022/12/20 11:51:28;;;;;;;24.83;17.35;;;5.60;99.90;;;;;;5065427;28;20179;-75
2022/12/20 11:54:12;;;;;;;25.80;18.50;;;5.70;99.90;;;;;;5058038;28;20610;-75
2022/12/20 11:56:45;;;;;;;25.45;17.42;;;5.60;99.90;;;;;;5061756;28;20199;-75
2022/12/20 11:59:33;;;;;;;26.75;17.70;;;5.70;99.90;;;;;;5059162;28;20170;-75
2022/12/20 12:02:37;;;;;;;28.10;18.73;;;5.50;99.90;;;;;;5062149;28;20195;-75
2022/12/20 12:05:25;;;;;;;28.25;18.85;;;5.50;99.90;;;;;;5020377;28;20312;-75
2022/12/20 12:07:58;;;;;;;25.17;17.88;;;5.40;99.90;;;;;;5023259;28;20259;-75
2022/12/20 12:10:30;;;;;;;28.50;19.45;;;5.50;99.90;;;;;;5047926;28;20207;-75
2022/12/20 12:13:04;;;;;;;27.15;18.40;;;5.50;99.90;;;;;;5059967;28;20176;-75
2022/12/20 12:15:49;;;;;;;28.63;18.63;;;5.40;99.90;;;;;;5061485;28;20171;-75
2022/12/20 12:18:24;;;;;;;26.95;19.30;;;5.30;99.90;;;;;;5060250;28;20175;-74
2022/12/20 12:20:58;;;;;;;26.73;18.38;;;5.20;99.90;;;;;;5060741;28;20194;-74
2022/12/20 12:23:52;;;;;;;28.75;19.65;;;5.20;99.90;;;;;;5058731;28;20184;-74
2022/12/20 12:26:24;;;;;;;29.92;20.27;;;5.20;99.90;;;;;;5029922;28;20191;-75
2022/12/20 12:28:56;;;;;;;27.98;19.05;;;5.30;99.90;;;;;;5059722;28;20199;-75
2022/12/20 12:31:28;;;;;;;30.55;19.80;;;5.20;99.90;;;;;;5059727;28;20195;-75
2022/12/20 12:34:07;;;;;;;30.80;19.88;;;5.20;99.90;;;;;;5058839;28;20225;-75
2022/12/20 12:37:17;;;;;;;34.13;20.48;;;5.00;99.90;;;;;;5054655;28;20207;-75
2022/12/20 12:39:43;;;;;;;31.17;21.45;;;5.00;99.90;;;;;;5063466;28;20268;-75
2022/12/20 12:42:29;;;;;;;31.70;21.30;;;5.10;99.90;;;;;;5066042;28;20179;-75
2022/12/20 12:44:59;;;;;;;32.70;21.67;;;5.00;99.90;;;;;;5065545;28;20185;-74
2022/12/20 12:47:57;;;;;;;30.98;19.73;;;4.80;99.90;;;;;;5070766;28;20646;-75
2022/12/20 12:50:25;;;;;;;35.42;22.08;;;4.80;99.90;;;;;;5059350;28;20219;-75
2022/12/20 12:52:54;;;;;;;31.08;20.50;;;4.70;99.90;;;;;;5079002;28;20258;-76
2022/12/20 12:55:45;;;;;;;32.38;20.67;;;4.60;99.90;;;;;;5069916;28;20520;-75
2022/12/20 12:58:23;;;;;;;33.00;21.25;;;4.50;99.90;;;;;;5068614;28;20179;-76
2022/12/20 13:01:04;;;;;;;34.70;21.77;;;4.40;99.90;;;;;;5060260;28;21109;-76